Time;durP1;ratioP1;P1;durP2;ratioP2;P2;SDS_P1;SDS_P2;PMS_P1;PMS_P2;Temp;Humidity;BMP_temperature;BMP_pressure;BME280_temperature;BME280_humidity;BME280_pressure;Samples;Min_cycle;Max_cycle;Signal;HPM_P1;HPM_P2
2021/06/02 00:05:29;;;;;;;;;8.25;8.25;;;;;;;;8679524;41;10813;-58
2021/06/02 00:11:35;;;;;;;;;8.50;8.50;;;;;;;;8679576;41;10554;-60
2021/06/02 00:17:38;;;;;;;;;7.00;7.00;;;;;;;;8680296;41;10577;-58
2021/06/02 00:23:40;;;;;;;;;8.75;7.00;;;;;;;;8679606;41;10605;-58
2021/06/02 00:29:46;;;;;;;;;5.75;5.75;;;;;;;;8680678;41;11306;-57
2021/06/02 00:35:49;;;;;;;;;5.75;5.75;;;;;;;;8680500;41;10545;-60
2021/06/02 00:41:52;;;;;;;;;9.00;6.25;;;;;;;;8662559;41;10504;-59
2021/06/02 00:47:55;;;;;;;;;5.00;3.00;;;;;;;;8662797;41;10524;-59
2021/06/02 00:53:58;;;;;;;;;5.00;3.00;;;;;;;;8657725;41;10505;-59
2021/06/02 01:00:08;;;;;;;;;1.75;1.75;;;;;;;;8655314;41;10447;-58
2021/06/02 01:06:12;;;;;;;;;2.33;2.33;;;;;;;;8656814;41;10045;-58
2021/06/02 01:12:17;;;;;;;;;1.00;1.00;;;;;;;;8655468;41;10495;-61
2021/06/02 01:18:20;;;;;;;;;2.00;2.00;;;;;;;;8659892;41;10606;-58
2021/06/02 01:24:25;;;;;;;;;5.00;3.00;;;;;;;;8678827;41;10784;-57
2021/06/02 01:30:28;;;;;;;;;1.25;1.00;;;;;;;;8659988;41;10764;-58
2021/06/02 01:37:08;;;;;;;;;2.25;2.25;;;;;;;;8655399;41;11394;-58
2021/06/02 01:43:31;;;;;;;;;1.00;1.00;;;;;;;;8655376;41;10842;-59
2021/06/02 01:49:50;;;;;;;;;1.33;1.00;;;;;;;;8654365;41;10122;-59
2021/06/02 01:56:30;;;;;;;;;5.25;1.75;;;;;;;;8654972;41;10584;-58
2021/06/02 02:02:59;;;;;;;;;2.00;2.00;;;;;;;;8655182;41;10792;-58
2021/06/02 02:09:20;;;;;;;;;1.00;1.00;;;;;;;;8654480;41;10627;-59
2021/06/02 02:15:47;;;;;;;;;1.33;1.33;;;;;;;;8654902;41;10079;-58
2021/06/02 02:22:02;;;;;;;;;1.33;1.33;;;;;;;;8654429;41;10082;-58
2021/06/02 02:28:40;;;;;;;;;1.75;1.75;;;;;;;;8654846;41;10734;-58
2021/06/02 02:34:56;;;;;;;;;1.00;1.00;;;;;;;;8654822;41;10520;-58
2021/06/02 02:41:04;;;;;;;;;2.75;2.00;;;;;;;;8654689;41;10561;-58
2021/06/02 02:47:37;;;;;;;;;2.00;2.00;;;;;;;;8653912;41;10063;-58
2021/06/02 02:53:58;;;;;;;;;1.33;1.33;;;;;;;;8655088;41;10502;-58
2021/06/02 03:00:05;;;;;;;;;1.00;1.00;;;;;;;;8670515;41;10125;-59
2021/06/02 03:06:12;;;;;;;;;1.50;1.50;;;;;;;;8677960;41;10563;-57
2021/06/02 03:12:24;;;;;;;;;1.33;1.33;;;;;;;;8678164;41;10050;-58
2021/06/02 03:18:59;;;;;;;;;1.00;1.00;;;;;;;;8681102;41;10873;-59
2021/06/02 03:25:18;;;;;;;;;1.50;1.50;;;;;;;;8670547;41;10488;-59
2021/06/02 03:31:36;;;;;;;;;3.25;3.25;;;;;;;;8682554;41;10579;-58
2021/06/02 03:38:03;;;;;;;;;3.75;2.50;;;;;;;;8680855;41;10617;-59
2021/06/02 03:44:20;;;;;;;;;3.00;1.67;;;;;;;;8671631;41;10019;-59
2021/06/02 03:50:28;;;;;;;;;1.00;1.00;;;;;;;;8674839;41;10259;-59
2021/06/02 03:56:51;;;;;;;;;2.00;2.00;;;;;;;;8657012;41;10327;-58
2021/06/02 04:02:59;;;;;;;;;3.00;3.00;;;;;;;;9708596;23;10564;-59
2021/06/02 04:09:09;;;;;;;;;2.00;2.00;;;;;;;;8730208;40;11014;-58
2021/06/02 04:15:13;;;;;;;;;3.50;2.25;;;;;;;;8721583;40;10420;-58
2021/06/02 04:21:18;;;;;;;;;3.00;3.00;;;;;;;;8711426;40;10548;-60
2021/06/02 04:27:20;;;;;;;;;2.25;2.25;;;;;;;;8702408;41;10406;-59
2021/06/02 04:33:25;;;;;;;;;6.50;5.25;;;;;;;;8708111;40;10455;-60
2021/06/02 04:39:28;;;;;;;;;6.25;6.25;;;;;;;;8715124;40;10499;-59
2021/06/02 04:45:38;;;;;;;;;5.25;5.25;;;;;;;;8707145;40;10466;-62
2021/06/02 04:52:02;;;;;;;;;8.25;6.75;;;;;;;;8707805;40;10474;-59
2021/06/02 04:58:26;;;;;;;;;10.67;10.67;;;;;;;;8723568;40;10060;-58
2021/06/02 05:04:57;;;;;;;;;8.00;8.00;;;;;;;;8731233;40;10018;-58
2021/06/02 05:11:37;;;;;;;;;4.67;4.67;;;;;;;;8722865;40;10249;-59
2021/06/02 05:17:56;;;;;;;;;8.67;6.33;;;;;;;;8691089;40;10634;-58
2021/06/02 05:24:04;;;;;;;;;7.67;7.33;;;;;;;;8706752;40;9984;-59
2021/06/02 05:30:30;;;;;;;;;8.00;8.00;;;;;;;;8706818;40;10118;-58
2021/06/02 05:36:38;;;;;;;;;11.33;11.00;;;;;;;;8704291;41;10173;-59
2021/06/02 05:43:25;;;;;;;;;13.00;10.67;;;;;;;;8704679;40;9984;-59
2021/06/02 05:49:54;;;;;;;;;10.67;10.33;;;;;;;;8718885;40;10633;-58
2021/06/02 05:56:24;;;;;;;;;10.33;10.33;;;;;;;;8727650;40;10081;-60
2021/06/02 06:03:20;;;;;;;;;11.33;9.67;;;;;;;;8718410;40;10095;-60
2021/06/02 06:09:59;;;;;;;;;12.00;11.67;;;;;;;;8690801;40;10112;-60
2021/06/02 06:16:01;;;;;;;;;7.00;7.00;;;;;;;;8704727;40;9940;-60
2021/06/02 06:22:12;;;;;;;;;11.00;9.33;;;;;;;;8703584;40;10078;-59
2021/06/02 06:28:32;;;;;;;;;9.67;8.33;;;;;;;;8698735;40;10152;-59
2021/06/02 06:34:36;;;;;;;;;14.00;12.67;;;;;;;;8713334;40;10108;-60
2021/06/02 06:40:39;;;;;;;;;10.67;10.67;;;;;;;;8684128;40;10082;-62
2021/06/02 06:46:45;;;;;;;;;12.33;9.00;;;;;;;;8702161;41;10091;-61
2021/06/02 06:53:01;;;;;;;;;8.33;8.00;;;;;;;;8701297;40;10116;-60
2021/06/02 06:59:04;;;;;;;;;12.00;10.33;;;;;;;;8696068;41;9955;-61
2021/06/02 07:05:08;;;;;;;;;12.00;12.00;;;;;;;;8702904;40;10148;-59
2021/06/02 07:11:13;;;;;;;;;15.00;15.00;;;;;;;;8699848;40;10109;-60
2021/06/02 07:17:17;;;;;;;;;13.67;13.00;;;;;;;;8703670;40;10105;-59
2021/06/02 07:23:20;;;;;;;;;18.00;17.67;;;;;;;;8690281;40;10137;-60
2021/06/02 07:29:25;;;;;;;;;5.33;3.00;;;;;;;;8679076;41;10019;-59
2021/06/02 07:35:27;;;;;;;;;11.00;11.00;;;;;;;;8684299;40;10099;-60
2021/06/02 07:41:29;;;;;;;;;6.67;6.67;;;;;;;;8688232;40;10134;-60
2021/06/02 07:47:31;;;;;;;;;15.33;13.00;;;;;;;;8693194;40;10700;-59
2021/06/02 07:53:33;;;;;;;;;11.67;9.33;;;;;;;;8684975;40;10089;-60
2021/06/02 07:59:36;;;;;;;;;4.67;4.67;;;;;;;;8677259;41;10314;-61
2021/06/02 08:05:38;;;;;;;;;6.33;6.33;;;;;;;;8703995;40;10658;-59
2021/06/02 08:11:40;;;;;;;;;4.00;4.00;;;;;;;;8688346;41;10260;-61
2021/06/02 08:17:43;;;;;;;;;5.67;5.67;;;;;;;;8699052;40;10217;-60
2021/06/02 08:23:45;;;;;;;;;6.25;5.00;;;;;;;;8702575;40;10768;-60
2021/06/02 08:29:50;;;;;;;;;10.00;8.00;;;;;;;;8709348;40;10556;-60
2021/06/02 08:35:53;;;;;;;;;7.00;7.00;;;;;;;;8711797;40;10348;-60
2021/06/02 08:41:55;;;;;;;;;2.00;2.00;;;;;;;;8700807;40;10974;-60
2021/06/02 08:48:00;;;;;;;;;4.25;4.25;;;;;;;;8703113;40;11454;-61
2021/06/02 08:54:02;;;;;;;;;3.00;3.00;;;;;;;;8697025;40;10882;-60
2021/06/02 09:00:08;;;;;;;;;3.25;3.25;;;;;;;;8693615;40;10792;-60
2021/06/02 09:06:10;;;;;;;;;3.00;3.00;;;;;;;;8699757;40;10822;-62
2021/06/02 09:12:14;;;;;;;;;6.25;3.00;;;;;;;;8700678;40;10782;-60
2021/06/02 09:18:21;;;;;;;;;9.00;9.00;;;;;;;;8697051;40;10959;-60
2021/06/02 09:24:45;;;;;;;;;4.67;4.67;;;;;;;;8700333;40;10662;-60
2021/06/02 09:30:47;;;;;;;;;6.25;4.75;;;;;;;;8698827;40;10919;-60
2021/06/02 09:37:06;;;;;;;;;9.33;7.00;;;;;;;;8695395;40;10635;-60
2021/06/02 09:43:08;;;;;;;;;3.50;3.50;;;;;;;;8685737;40;10652;-61
2021/06/02 09:49:11;;;;;;;;;7.00;7.00;;;;;;;;8696153;40;10922;-60
2021/06/02 09:55:18;;;;;;;;;4.75;4.75;;;;;;;;8702126;40;10912;-60
2021/06/02 10:01:21;;;;;;;;;15.67;13.00;;;;;;;;8707424;40;10226;-60
2021/06/02 10:07:23;;;;;;;;;6.75;6.75;;;;;;;;8700408;40;10775;-60
2021/06/02 10:13:29;;;;;;;;;9.00;7.00;;;;;;;;8694665;40;10856;-61
2021/06/02 10:19:41;;;;;;;;;8.50;7.50;;;;;;;;8680128;41;10740;-61
2021/06/02 10:25:45;;;;;;;;;8.00;6.25;;;;;;;;8694775;40;10642;-60
2021/06/02 10:31:47;;;;;;;;;7.50;6.25;;;;;;;;8674885;41;10968;-61
2021/06/02 10:37:53;;;;;;;;;12.50;11.25;;;;;;;;8676584;40;10979;-62
2021/06/02 10:44:03;;;;;;;;;9.00;6.25;;;;;;;;8677534;41;10841;-61
2021/06/02 10:50:05;;;;;;;;;8.00;8.00;;;;;;;;8686596;40;10984;-61
2021/06/02 10:56:19;;;;;;;;;5.50;5.25;;;;;;;;8701545;40;11092;-61
2021/06/02 11:02:31;;;;;;;;;5.00;5.00;;;;;;;;8678989;41;10952;-63
2021/06/02 11:08:48;;;;;;;;;10.75;9.00;;;;;;;;8709030;40;10889;-60
2021/06/02 11:14:52;;;;;;;;;9.75;8.50;;;;;;;;8700810;40;10661;-62
2021/06/02 11:21:00;;;;;;;;;5.50;5.50;;;;;;;;8688906;40;11109;-64
2021/06/02 11:27:11;;;;;;;;;7.00;7.00;;;;;;;;8700411;40;11253;-61
2021/06/02 11:33:13;;;;;;;;;3.00;3.00;;;;;;;;8699917;41;10861;-60
2021/06/02 11:39:15;;;;;;;;;2.00;2.00;;;;;;;;8701076;41;11371;-61
2021/06/02 11:45:26;;;;;;;;;4.25;3.00;;;;;;;;8704862;40;10769;-61
2021/06/02 11:51:31;;;;;;;;;6.25;6.25;;;;;;;;8702058;40;11525;-63
2021/06/02 11:57:36;;;;;;;;;5.50;5.50;;;;;;;;8686279;41;10677;-61
2021/06/02 12:03:38;;;;;;;;;5.25;5.25;;;;;;;;8689207;41;10657;-62
2021/06/02 12:09:54;;;;;;;;;8.50;8.50;;;;;;;;8691144;41;10628;-63
2021/06/02 12:15:59;;;;;;;;;11.50;11.50;;;;;;;;8690502;40;10883;-61
2021/06/02 12:22:12;;;;;;;;;8.00;6.75;;;;;;;;8683082;41;10630;-62
2021/06/02 12:28:14;;;;;;;;;9.25;9.25;;;;;;;;8692222;41;11791;-64
2021/06/02 12:34:21;;;;;;;;;14.33;13.67;;;;;;;;8707981;40;10508;-61
2021/06/02 12:40:24;;;;;;;;;8.75;8.25;;;;;;;;8725385;40;10921;-61
2021/06/02 12:46:26;;;;;;;;;9.67;9.67;;;;;;;;8693226;40;10488;-62
2021/06/02 12:52:27;;;;;;;;;7.00;6.67;;;;;;;;8725686;40;10094;-62
2021/06/02 12:58:31;;;;;;;;;10.67;10.67;;;;;;;;8700500;40;10227;-62
2021/06/02 13:04:35;;;;;;;;;12.67;10.67;;;;;;;;8701026;40;11178;-61
2021/06/02 13:10:38;;;;;;;;;6.00;6.00;;;;;;;;8707373;40;10742;-61
2021/06/02 13:16:58;;;;;;;;;7.00;7.00;;;;;;;;8712656;40;10171;-62
2021/06/02 13:23:18;;;;;;;;;10.67;9.00;;;;;;;;8678975;41;10732;-61
2021/06/02 13:29:21;;;;;;;;;9.50;9.50;;;;;;;;8694633;40;11274;-63
2021/06/02 13:35:23;;;;;;;;;6.50;6.50;;;;;;;;8700234;41;10936;-61
2021/06/02 13:41:26;;;;;;;;;22.00;20.00;;;;;;;;8700332;40;10099;-62
2021/06/02 13:47:32;;;;;;;;;9.00;9.00;;;;;;;;8700847;40;10598;-64
2021/06/02 13:53:34;;;;;;;;;8.00;7.00;;;;;;;;8699833;41;10118;-65
2021/06/02 13:59:52;;;;;;;;;10.00;7.67;;;;;;;;8701948;40;10327;-61
2021/06/02 14:05:53;;;;;;;;;9.00;8.33;;;;;;;;8703900;40;11090;-60
2021/06/02 14:11:56;;;;;;;;;10.33;9.33;;;;;;;;8700029;40;10317;-61
2021/06/02 14:17:58;;;;;;;;;10.33;7.00;;;;;;;;8700197;41;10630;-60
2021/06/02 14:24:02;;;;;;;;;11.33;8.67;;;;;;;;8701501;40;10099;-61
2021/06/02 14:30:04;;;;;;;;;8.00;6.00;;;;;;;;8704612;40;10033;-60
2021/06/02 14:36:10;;;;;;;;;7.33;7.00;;;;;;;;8704617;40;10086;-62
2021/06/02 14:42:13;;;;;;;;;10.33;10.00;;;;;;;;8703865;40;10198;-62
2021/06/02 14:48:15;;;;;;;;;11.67;9.33;;;;;;;;8704428;41;10695;-61
2021/06/02 14:54:17;;;;;;;;;8.33;7.67;;;;;;;;8702798;40;10944;-61
2021/06/02 15:00:20;;;;;;;;;9.67;9.00;;;;;;;;8702682;40;10137;-60
2021/06/02 15:06:22;;;;;;;;;10.00;10.00;;;;;;;;8702999;40;10104;-60
2021/06/02 15:12:24;;;;;;;;;11.33;9.67;;;;;;;;8709936;40;10731;-60
2021/06/02 15:18:28;;;;;;;;;6.67;6.67;;;;;;;;8725830;40;10119;-59
2021/06/02 15:24:30;;;;;;;;;8.67;8.67;;;;;;;;8725591;40;10062;-59
2021/06/02 15:30:34;;;;;;;;;10.33;10.33;;;;;;;;8725105;40;10175;-61
2021/06/02 15:36:39;;;;;;;;;12.00;12.00;;;;;;;;8725777;40;10117;-61
2021/06/02 15:42:43;;;;;;;;;7.00;6.67;;;;;;;;8726546;40;10246;-61
2021/06/02 15:48:45;;;;;;;;;11.00;10.67;;;;;;;;8727948;40;10057;-61
2021/06/02 15:54:50;;;;;;;;;8.00;6.33;;;;;;;;8726404;40;10183;-61
2021/06/02 16:00:53;;;;;;;;;9.00;7.00;;;;;;;;8723505;40;10020;-59
2021/06/02 16:06:55;;;;;;;;;9.00;7.67;;;;;;;;8709713;40;11084;-60
2021/06/02 16:12:57;;;;;;;;;9.00;9.00;;;;;;;;8726700;40;11009;-59
2021/06/02 16:18:59;;;;;;;;;6.00;5.67;;;;;;;;8726405;40;10603;-62
2021/06/02 16:25:03;;;;;;;;;11.33;8.33;;;;;;;;8728148;40;10114;-60
2021/06/02 16:31:06;;;;;;;;;8.00;8.00;;;;;;;;8729473;40;10613;-59
2021/06/02 16:37:08;;;;;;;;;8.00;7.67;;;;;;;;8728070;40;10203;-60
2021/06/02 16:43:10;;;;;;;;;11.00;9.33;;;;;;;;8727978;40;10011;-58
2021/06/02 16:49:12;;;;;;;;;11.33;10.33;;;;;;;;8728711;40;10077;-60
2021/06/02 16:55:15;;;;;;;;;14.00;13.67;;;;;;;;8728983;40;10113;-59
2021/06/02 17:01:22;;;;;;;;;10.33;9.67;;;;;;;;8729071;40;10114;-60
2021/06/02 17:07:25;;;;;;;;;10.67;9.00;;;;;;;;8730060;40;10067;-60
2021/06/02 17:13:27;;;;;;;;;12.33;10.67;;;;;;;;8728478;40;10108;-59
2021/06/02 17:19:32;;;;;;;;;12.00;12.00;;;;;;;;8716200;40;10583;-59
2021/06/02 17:25:36;;;;;;;;;10.33;10.33;;;;;;;;8705481;40;10062;-61
2021/06/02 17:31:38;;;;;;;;;15.00;13.33;;;;;;;;8703475;40;10124;-61
2021/06/02 17:37:41;;;;;;;;;13.33;13.33;;;;;;;;8704096;40;10027;-60
2021/06/02 17:43:46;;;;;;;;;16.33;11.33;;;;;;;;8703131;40;9996;-60
2021/06/02 17:49:51;;;;;;;;;13.33;13.33;;;;;;;;8704319;40;10203;-61
2021/06/02 17:55:56;;;;;;;;;15.50;15.50;;;;;;;;8704297;40;10119;-61
2021/06/02 18:02:17;;;;;;;;;16.00;12.33;;;;;;;;8725885;40;10057;-63
2021/06/02 18:08:21;;;;;;;;;13.33;13.33;;;;;;;;8717157;40;10168;-59
2021/06/02 18:14:24;;;;;;;;;15.67;15.33;;;;;;;;8705433;40;10146;-60
2021/06/02 18:20:31;;;;;;;;;15.67;12.00;;;;;;;;8704226;41;10128;-61
2021/06/02 18:26:33;;;;;;;;;17.00;16.00;;;;;;;;8703419;40;10134;-60
2021/06/02 18:32:35;;;;;;;;;14.67;14.67;;;;;;;;8703446;40;10067;-59
2021/06/02 18:38:38;;;;;;;;;18.67;16.00;;;;;;;;8723025;40;10309;-60
2021/06/02 18:44:40;;;;;;;;;20.00;19.00;;;;;;;;8726715;40;10063;-59
2021/06/02 18:50:43;;;;;;;;;20.67;18.67;;;;;;;;8719700;40;10140;-59
2021/06/02 18:56:45;;;;;;;;;19.33;17.67;;;;;;;;8704110;41;10134;-59
2021/06/02 19:02:47;;;;;;;;;21.33;20.67;;;;;;;;8703715;40;10115;-59
2021/06/02 19:08:49;;;;;;;;;21.67;14.67;;;;;;;;8702587;41;10181;-60
2021/06/02 19:14:51;;;;;;;;;23.00;21.00;;;;;;;;8702915;40;10125;-59
2021/06/02 19:20:53;;;;;;;;;22.00;19.00;;;;;;;;8702922;40;10145;-61
2021/06/02 19:26:55;;;;;;;;;18.67;16.67;;;;;;;;8702546;40;10111;-59
2021/06/02 19:32:59;;;;;;;;;15.33;15.33;;;;;;;;8703088;40;10327;-59
2021/06/02 19:39:01;;;;;;;;;17.33;17.33;;;;;;;;8703683;40;10136;-59
2021/06/02 19:45:05;;;;;;;;;13.67;11.67;;;;;;;;8704239;40;10161;-59
2021/06/02 19:51:07;;;;;;;;;21.33;18.67;;;;;;;;8700340;40;10143;-60
2021/06/02 19:57:12;;;;;;;;;18.33;16.33;;;;;;;;8705030;41;10216;-59
2021/06/02 20:03:14;;;;;;;;;23.00;21.67;;;;;;;;8710068;40;10102;-61
2021/06/02 20:09:16;;;;;;;;;19.67;18.67;;;;;;;;8728988;40;10083;-58
2021/06/02 20:15:18;;;;;;;;;17.00;15.00;;;;;;;;8711030;40;10177;-59
2021/06/02 20:21:20;;;;;;;;;20.33;20.33;;;;;;;;8706538;41;10340;-59
2021/06/02 20:27:22;;;;;;;;;15.00;14.33;;;;;;;;8705891;41;10127;-59
2021/06/02 20:33:24;;;;;;;;;18.00;14.33;;;;;;;;8705413;40;10662;-59
2021/06/02 20:39:28;;;;;;;;;10.33;10.33;;;;;;;;8707196;40;10836;-60
2021/06/02 20:45:32;;;;;;;;;12.67;11.00;;;;;;;;8705112;41;10776;-59
2021/06/02 20:51:33;;;;;;;;;11.33;11.00;;;;;;;;8705003;40;10129;-59
2021/06/02 20:57:37;;;;;;;;;11.33;11.00;;;;;;;;8706841;40;11257;-59
2021/06/02 21:03:39;;;;;;;;;12.67;10.67;;;;;;;;8705703;40;10139;-59
2021/06/02 21:09:41;;;;;;;;;13.00;12.00;;;;;;;;8722898;40;10106;-59
2021/06/02 21:15:43;;;;;;;;;11.00;11.00;;;;;;;;8729739;40;10841;-58
2021/06/02 21:21:45;;;;;;;;;13.00;11.33;;;;;;;;8727858;40;10062;-59
2021/06/02 21:27:50;;;;;;;;;11.00;11.00;;;;;;;;8728439;40;10030;-59
2021/06/02 21:33:53;;;;;;;;;13.33;13.33;;;;;;;;8715522;40;10704;-60
2021/06/02 21:39:55;;;;;;;;;18.00;18.00;;;;;;;;8705206;40;10645;-58
2021/06/02 21:45:57;;;;;;;;;19.33;19.00;;;;;;;;8704411;41;10169;-59
2021/06/02 21:51:59;;;;;;;;;18.00;15.67;;;;;;;;8703691;40;10152;-58
2021/06/02 21:58:02;;;;;;;;;20.00;15.00;;;;;;;;8705229;40;10287;-59
2021/06/02 22:04:04;;;;;;;;;19.67;17.33;;;;;;;;8705221;40;10156;-59
2021/06/02 22:10:07;;;;;;;;;17.67;16.67;;;;;;;;8703806;40;10147;-58
2021/06/02 22:16:09;;;;;;;;;16.00;15.00;;;;;;;;8704798;40;10156;-58
2021/06/02 22:22:11;;;;;;;;;18.00;17.67;;;;;;;;8709621;40;10159;-58
2021/06/02 22:28:14;;;;;;;;;19.33;18.00;;;;;;;;8725384;40;10159;-59
2021/06/02 22:34:17;;;;;;;;;18.00;18.00;;;;;;;;8704545;40;10110;-59
2021/06/02 22:40:20;;;;;;;;;20.00;19.00;;;;;;;;8703496;40;10161;-58
2021/06/02 22:46:22;;;;;;;;;18.33;18.00;;;;;;;;8703611;40;10037;-59
2021/06/02 22:52:25;;;;;;;;;22.00;19.33;;;;;;;;8702778;40;10164;-58
2021/06/02 22:58:27;;;;;;;;;15.00;15.00;;;;;;;;8703927;40;10139;-59
2021/06/02 23:04:29;;;;;;;;;23.50;23.50;;;;;;;;8703781;40;10632;-57
2021/06/02 23:10:31;;;;;;;;;14.33;14.33;;;;;;;;8703212;40;10923;-58
2021/06/02 23:16:33;;;;;;;;;15.33;15.33;;;;;;;;8704578;40;10702;-58
2021/06/02 23:22:36;;;;;;;;;21.33;18.67;;;;;;;;8702331;40;10348;-58
2021/06/02 23:28:38;;;;;;;;;16.00;16.00;;;;;;;;8703860;40;10670;-57
2021/06/02 23:34:39;;;;;;;;;14.33;12.67;;;;;;;;8706908;41;10804;-58
2021/06/02 23:40:42;;;;;;;;;16.33;13.33;;;;;;;;8706202;41;10054;-58
2021/06/02 23:46:44;;;;;;;;;15.33;12.00;;;;;;;;8706134;40;10118;-59
2021/06/02 23:52:47;;;;;;;;;15.33;11.67;;;;;;;;8706174;40;10120;-58
2021/06/02 23:58:49;;;;;;;;;13.00;11.67;;;;;;;;8706337;41;10063;-58
